グアダラハラ の空港の天気 - METARとTAF

ドン・ミゲル・イダルゴ・イ・コスティージャ国際空港 ( MMGL / GDL ) - メキシコ ハリスコ州グアダラハラ
飛行場実況気象(Metar)
観測時間07/18 08:46 CDT (07/18 13:46 UTC)
風向・風速静穏 0m/s
視程4000m
天気現象もや
全天の4割程度の雲 雲底高度 610m
全天の8割程度の雲 雲底高度 2740m
全天を覆う雲 雲底高度 9140m
気温18℃
湿度88%
気圧1024hPa
METARMMGL 181346Z 00000KT 2 1/2SM BR SCT020 BKN090 OVC300 18/16 A3025 RMK 8/577 BINOVC
過去の天気等 Google飛行場航空写真 Wunderground天気予報

過去48時間のMETAR

飛行場予報(TAF)
発表時間: 7/18 08:04 CDT (7/18 13:04 UTC)
予報対象時間: 18日8時 CDT ~ 19日13時 CDT
風向・風速北北東 3m/s
18日9時 CDT ~ 18日10時 CDT に徐々に
視程8050m
天気現象煙霧
18日12時 CDT から
風向・風速東 3m/s
視程10km以上
天気現象煙霧
全天の4割程度の雲 雲底高度 910m
全天の8割程度の雲 雲底高度 2740m
18日16時 CDT から
風向・風速南西 6m/s
視程10km以上
天気現象周辺で 雨
全天の8割程度の積乱雲 雲底高度 610m
全天の8割程度の雲 雲底高度 2740m
18日17時 CDT ~ 18日21時 CDT に一時的に
視程4830m
天気現象雷雨
18日22時 CDT から
風向・風速静穏
視程10km以上
全天の8割程度の積乱雲 雲底高度 610m
全天を覆う雲 雲底高度 2740m
18日22時 CDT から 確率 40% で
視程8050m
天気現象雷雨
19日3時 CDT から
風向・風速静穏
視程10km以上
天気現象煙霧
全天の4割程度の雲 雲底高度 610m
全天の8割程度の雲 雲底高度 2740m
19日6時 CDT ~ 19日10時 CDT に一時的に
視程4830m
天気現象もや 煙霧
TAF AMD MMGL 181304Z 1813/1918 03005KT 2 1/2SM BR SCT020 BKN090 TX30/1822Z TN17/1912Z
BECMG 1814/1815 5SM HZ
FM181700 09005KT 6SM HZ SCT030 BKN090
FM182100 23012KT P6SM VC RA BKN020CB BKN090
TEMPO 1822/1902 3SM TSRA
FM190300 00000KT P6SM BKN020CB OVC090
PROB40 1903/1907 5SM TSRA
FM190800 00000KT 6SM HZ SCT020 BKN090
TEMPO 1911/1915 3SM BR HZ